Terminal Aerodrome Forecast
Issued by NWS Upton, NY

Home | Current Version | Previous Version | Text Only | Print | Product List | Glossary On
Versions: 1 2 3 4 5 6 7 8 9 10 11 12 13 14 15 16 17 18 19 20 21 22 23 24 25 26 27 28
000
FTUS41 KOKX 210522
TAFISP
TAF
KISP 210522Z 2106/2206 12004KT 1/4SM -DZ FG VV002
      TEMPO 2106/2108 2SM TSRA BKN005CB OVC010
     FM210800 18005KT 1/4SM -DZ FG OVC002
     FM211300 25007KT 6SM BR BKN025
     FM211600 27015G22KT P6SM SCT050
     FM220100 25007KT P6SM FEW050=

USA.gov is the U.S. government's official web portal to all federal, state and local government web resources and services.